3 – eServices

Baggage tracing
Cargo tracing
Weather
  • METAR

    EFMA 091050Z AUTO 31010KT 250V360 9999 BKN026 15/09 Q1009

    EFTU 091050Z AUTO 24012KT 210V270 9999 VCSH FEW017 //////CB 15/08 Q1007

    EFHK 091050Z 22011KT 190V250 9999 VCSH FEW030CB SCT035 16/07 Q1007 TEMPO SHRA

    ESSA 091050Z 27010KT 240V310 9999 FEW042 17/06 Q1009 NOSIG

    ESSB 091050Z 28011KT 250V310 CAVOK 18/06 Q1010

  • TAF n/a

Flightradar24